EZY519 EGGP-EGNS
Flight info
| Callsign | EZY519 |
|---|---|
| Flight time | 0h 22m |
| Altitude | 16000 |
| Route | WAL M146 LUSOD DCT IOM |
| Aircraft | A319/M-SDE3FGHIRWY/LB1 |
Departure
| Time | 2026-04-25 13:13 |
|---|---|
| Airport | Liverpool John Lennon Airport (EGGP) |
Arrival
| Time | 2026-04-25 13:35 |
|---|---|
| Airport | Isle of Man Airport (EGNS) |
| Time | Latitude | Longitude | Altitude | Speed | Heading |
|---|---|---|---|---|---|
| 2026-04-25 12:48 | 53.33642 | -2.84944 | 91 ft | 0 kts | 85° |
| 2026-04-25 13:05 | 53.33642 | -2.84948 | 89 ft | 3 kts | 85° |
| 2026-04-25 13:06 | 53.33640 | -2.84992 | 92 ft | 4 kts | 82° |
| 2026-04-25 13:06 | 53.33635 | -2.85027 | 92 ft | 3 kts | 72° |
| 2026-04-25 13:06 | 53.33635 | -2.85064 | 92 ft | 4 kts | 147° |
| 2026-04-25 13:06 | 53.33653 | -2.85076 | 91 ft | 2 kts | 175° |
| 2026-04-25 13:07 | 53.33628 | -2.85073 | 91 ft | 4 kts | 175° |
| 2026-04-25 13:07 | 53.33606 | -2.85070 | 89 ft | 0 kts | 175° |
| 2026-04-25 13:09 | 53.33588 | -2.85067 | 90 ft | 8 kts | 175° |
| 2026-04-25 13:09 | 53.33529 | -2.85036 | 90 ft | 9 kts | 124° |
| 2026-04-25 13:09 | 53.33530 | -2.84924 | 89 ft | 10 kts | 84° |
| 2026-04-25 13:10 | 53.33537 | -2.84788 | 92 ft | 13 kts | 86° |
| 2026-04-25 13:10 | 53.33544 | -2.84616 | 89 ft | 16 kts | 86° |
| 2026-04-25 13:10 | 53.33554 | -2.84411 | 89 ft | 19 kts | 85° |
| 2026-04-25 13:10 | 53.33565 | -2.84173 | 89 ft | 22 kts | 85° |
| 2026-04-25 13:11 | 53.33578 | -2.83906 | 90 ft | 24 kts | 85° |
| 2026-04-25 13:11 | 53.33591 | -2.83615 | 89 ft | 24 kts | 85° |
| 2026-04-25 13:11 | 53.33590 | -2.83356 | 92 ft | 20 kts | 115° |
| 2026-04-25 13:11 | 53.33464 | -2.83298 | 90 ft | 20 kts | 192° |
| 2026-04-25 13:12 | 53.33434 | -2.83455 | 91 ft | 13 kts | 264° |
| 2026-04-25 13:12 | 53.33411 | -2.83921 | 91 ft | 82 kts | 265° |
| 2026-04-25 13:12 | 53.33351 | -2.85298 | 97 ft | 151 kts | 266° |
| 2026-04-25 13:12 | 53.33293 | -2.86491 | 478 ft | 153 kts | 266° |
| 2026-04-25 13:13 | 53.33196 | -2.88843 | 1532 ft | 151 kts | 266° |
| 2026-04-25 13:13 | 53.33107 | -2.90632 | 2121 ft | 163 kts | 265° |
| 2026-04-25 13:13 | 53.33170 | -2.92657 | 2544 ft | 187 kts | 284° |
| 2026-04-25 13:13 | 53.33704 | -2.94791 | 2952 ft | 212 kts | 296° |
| 2026-04-25 13:14 | 53.34394 | -2.97141 | 3522 ft | 237 kts | 296° |
| 2026-04-25 13:14 | 53.35161 | -2.99735 | 4236 ft | 257 kts | 296° |
| 2026-04-25 13:14 | 53.35964 | -3.02458 | 5274 ft | 263 kts | 296° |
| 2026-04-25 13:14 | 53.36771 | -3.05192 | 6321 ft | 268 kts | 296° |
| 2026-04-25 13:15 | 53.37603 | -3.08019 | 7370 ft | 273 kts | 296° |
| 2026-04-25 13:15 | 53.38445 | -3.10894 | 8397 ft | 277 kts | 296° |
| 2026-04-25 13:15 | 53.39398 | -3.13729 | 9387 ft | 283 kts | 307° |
| 2026-04-25 13:15 | 53.40762 | -3.16145 | 10361 ft | 288 kts | 314° |
| 2026-04-25 13:16 | 53.42237 | -3.18639 | 10805 ft | 312 kts | 314° |
| 2026-04-25 13:16 | 53.43797 | -3.21284 | 11459 ft | 325 kts | 314° |
| 2026-04-25 13:16 | 53.45402 | -3.24006 | 12318 ft | 330 kts | 314° |
| 2026-04-25 13:16 | 53.47023 | -3.26765 | 13196 ft | 335 kts | 314° |
| 2026-04-25 13:17 | 53.48691 | -3.29614 | 14082 ft | 339 kts | 313° |
| 2026-04-25 13:17 | 53.50330 | -3.32416 | 14847 ft | 343 kts | 313° |
| 2026-04-25 13:17 | 53.52008 | -3.35292 | 15621 ft | 347 kts | 313° |
| 2026-04-25 13:17 | 53.53731 | -3.38248 | 16067 ft | 350 kts | 313° |
| 2026-04-25 13:18 | 53.55413 | -3.41138 | 16195 ft | 348 kts | 313° |
| 2026-04-25 13:18 | 53.57065 | -3.43974 | 16217 ft | 333 kts | 313° |
| 2026-04-25 13:18 | 53.58532 | -3.46934 | 16222 ft | 328 kts | 304° |
| 2026-04-25 13:18 | 53.59847 | -3.50074 | 16226 ft | 327 kts | 304° |
| 2026-04-25 13:19 | 53.61163 | -3.53205 | 16223 ft | 327 kts | 304° |
| 2026-04-25 13:19 | 53.62476 | -3.56322 | 16224 ft | 327 kts | 304° |
| 2026-04-25 13:19 | 53.63792 | -3.59453 | 16224 ft | 327 kts | 304° |
| 2026-04-25 13:19 | 53.64669 | -3.61536 | 16227 ft | 327 kts | 304° |
| 2026-04-25 13:20 | 53.66427 | -3.65711 | 16224 ft | 327 kts | 304° |
| 2026-04-25 13:20 | 53.67742 | -3.68847 | 16224 ft | 327 kts | 304° |
| 2026-04-25 13:20 | 53.69046 | -3.71974 | 16112 ft | 322 kts | 303° |
| 2026-04-25 13:20 | 53.70325 | -3.75045 | 15757 ft | 319 kts | 303° |
| 2026-04-25 13:21 | 53.71599 | -3.78104 | 15386 ft | 317 kts | 304° |
| 2026-04-25 13:21 | 53.72867 | -3.81148 | 15011 ft | 316 kts | 304° |
| 2026-04-25 13:21 | 53.74126 | -3.84177 | 14650 ft | 315 kts | 304° |
| 2026-04-25 13:21 | 53.75380 | -3.87196 | 14299 ft | 313 kts | 304° |
| 2026-04-25 13:22 | 53.76628 | -3.90203 | 13936 ft | 312 kts | 304° |
| 2026-04-25 13:22 | 53.77872 | -3.93204 | 13541 ft | 310 kts | 304° |
| 2026-04-25 13:22 | 53.79108 | -3.96186 | 13147 ft | 309 kts | 304° |
| 2026-04-25 13:23 | 53.81314 | -4.02295 | 12368 ft | 305 kts | 295° |
| 2026-04-25 13:23 | 53.81938 | -4.04463 | 12109 ft | 304 kts | 295° |
| 2026-04-25 13:24 | 53.82032 | -4.04793 | 12074 ft | 304 kts | 295° |
| 2026-04-25 13:24 | 53.82974 | -4.08079 | 11667 ft | 302 kts | 295° |
| 2026-04-25 13:24 | 53.83881 | -4.11287 | 11294 ft | 300 kts | 295° |
| 2026-04-25 13:25 | 53.84762 | -4.14421 | 10921 ft | 299 kts | 295° |
| 2026-04-25 13:25 | 53.85565 | -4.17294 | 10606 ft | 296 kts | 294° |
| 2026-04-25 13:25 | 53.86437 | -4.20415 | 10343 ft | 291 kts | 294° |
| 2026-04-25 13:25 | 53.87295 | -4.23496 | 9993 ft | 288 kts | 294° |
| 2026-04-25 13:26 | 53.88149 | -4.26568 | 9598 ft | 287 kts | 294° |
| 2026-04-25 13:26 | 53.88993 | -4.29609 | 9204 ft | 284 kts | 294° |
| 2026-04-25 13:26 | 53.89832 | -4.32633 | 8817 ft | 282 kts | 294° |
| 2026-04-25 13:26 | 53.90666 | -4.35644 | 8425 ft | 280 kts | 294° |
| 2026-04-25 13:27 | 53.91488 | -4.38611 | 8209 ft | 278 kts | 294° |
| 2026-04-25 13:27 | 53.92312 | -4.41586 | 8129 ft | 277 kts | 294° |
| 2026-04-25 13:27 | 53.93127 | -4.44542 | 7710 ft | 276 kts | 294° |
| 2026-04-25 13:27 | 53.93820 | -4.47530 | 7483 ft | 267 kts | 289° |
| 2026-04-25 13:28 | 53.94446 | -4.50413 | 7356 ft | 254 kts | 289° |
| 2026-04-25 13:28 | 53.94644 | -4.51328 | 7323 ft | 251 kts | 289° |
| 2026-04-25 13:28 | 53.95616 | -4.55833 | 6767 ft | 238 kts | 289° |
| 2026-04-25 13:28 | 53.96098 | -4.58507 | 6243 ft | 236 kts | 282° |
| 2026-04-25 13:29 | 53.96400 | -4.61190 | 5728 ft | 234 kts | 279° |
| 2026-04-25 13:29 | 53.96679 | -4.63900 | 5212 ft | 232 kts | 279° |
| 2026-04-25 13:29 | 53.96955 | -4.66591 | 4700 ft | 230 kts | 279° |
| 2026-04-25 13:30 | 53.97509 | -4.71949 | 3655 ft | 228 kts | 279° |
| 2026-04-25 13:30 | 53.97780 | -4.74558 | 3159 ft | 227 kts | 279° |
| 2026-04-25 13:30 | 53.98058 | -4.77223 | 2642 ft | 226 kts | 279° |
| 2026-04-25 13:31 | 53.99583 | -4.81461 | 2118 ft | 209 kts | 328° |
| 2026-04-25 13:31 | 54.00947 | -4.82272 | 2028 ft | 208 kts | 352° |
| 2026-04-25 13:31 | 54.02339 | -4.82611 | 2002 ft | 196 kts | 352° |
| 2026-04-25 13:31 | 54.03643 | -4.82928 | 2027 ft | 182 kts | 352° |
| 2026-04-25 13:32 | 54.04859 | -4.83194 | 2001 ft | 172 kts | 357° |
| 2026-04-25 13:32 | 54.05981 | -4.82639 | 2001 ft | 169 kts | 35° |
| 2026-04-25 13:32 | 54.06692 | -4.81109 | 2005 ft | 167 kts | 70° |
| 2026-04-25 13:32 | 54.06900 | -4.79176 | 2020 ft | 166 kts | 83° |
| 2026-04-25 13:33 | 54.07061 | -4.77224 | 1895 ft | 168 kts | 83° |
| 2026-04-25 13:33 | 54.07219 | -4.75267 | 1666 ft | 165 kts | 83° |
| 2026-04-25 13:33 | 54.07368 | -4.73400 | 1429 ft | 153 kts | 83° |
| 2026-04-25 13:33 | 54.07459 | -4.72259 | 1271 ft | 143 kts | 84° |
| 2026-04-25 13:34 | 54.07618 | -4.70133 | 978 ft | 130 kts | 85° |
| 2026-04-25 13:34 | 54.07702 | -4.68621 | 771 ft | 127 kts | 86° |
| 2026-04-25 13:34 | 54.07799 | -4.67136 | 593 ft | 125 kts | 85° |
| 2026-04-25 13:34 | 54.07938 | -4.65684 | 382 ft | 124 kts | 82° |
| 2026-04-25 13:35 | 54.08099 | -4.64240 | 176 ft | 123 kts | 81° |
| 2026-04-25 13:35 | 54.08273 | -4.62828 | 42 ft | 114 kts | 79° |
| 2026-04-25 13:35 | 54.08382 | -4.61924 | 37 ft | 41 kts | 78° |
| 2026-04-25 13:35 | 54.08434 | -4.61523 | 37 ft | 23 kts | 78° |
| 2026-04-25 13:36 | 54.08521 | -4.61455 | 38 ft | 16 kts | 313° |
| 2026-04-25 13:36 | 54.08540 | -4.61641 | 38 ft | 16 kts | 275° |
| 2026-04-25 13:36 | 54.08552 | -4.61838 | 37 ft | 17 kts | 276° |
| 2026-04-25 13:36 | 54.08534 | -4.62039 | 38 ft | 18 kts | 258° |
| 2026-04-25 13:37 | 54.08511 | -4.62248 | 39 ft | 18 kts | 257° |
| 2026-04-25 13:37 | 54.08480 | -4.62461 | 39 ft | 19 kts | 258° |
| 2026-04-25 13:37 | 54.08452 | -4.62693 | 39 ft | 20 kts | 258° |
| 2026-04-25 13:37 | 54.08422 | -4.62927 | 39 ft | 16 kts | 258° |
| 2026-04-25 13:38 | 54.08490 | -4.63007 | 39 ft | 14 kts | 354° |
| 2026-04-25 13:38 | 54.08580 | -4.63047 | 39 ft | 13 kts | 330° |
| 2026-04-25 13:38 | 54.08640 | -4.63167 | 38 ft | 12 kts | 319° |
| 2026-04-25 13:38 | 54.08649 | -4.63233 | 35 ft | 2 kts | 216° |
| 2026-04-25 13:39 | 54.08634 | -4.63258 | 38 ft | 3 kts | 224° |
| 2026-04-25 13:39 | 54.08628 | -4.63267 | 38 ft | 0 kts | 224° |